createdAt,value
2023-04-23T00:00:12.352Z,4.10
2023-04-23T00:02:45.504Z,4.50
2023-04-23T00:05:15.007Z,4.07
2023-04-23T00:07:43.489Z,4.30
2023-04-23T00:10:12.949Z,4.37
2023-04-23T00:12:42.676Z,4.57
2023-04-23T00:15:12.585Z,4.27
2023-04-23T00:17:42.257Z,3.77
2023-04-23T00:20:11.140Z,3.70
2023-04-23T00:22:39.242Z,4.63
2023-04-23T00:25:07.987Z,3.57
2023-04-23T00:27:36.097Z,4.40
2023-04-23T00:30:04.624Z,3.80
2023-04-23T00:32:32.819Z,4.60
2023-04-23T00:35:03.459Z,4.10
2023-04-23T00:37:31.586Z,4.13
2023-04-23T00:39:59.744Z,3.93
2023-04-23T00:42:29.090Z,3.30
2023-04-23T00:44:57.541Z,2.70
2023-04-23T00:47:26.142Z,3.23
2023-04-23T00:49:55.658Z,3.10
2023-04-23T00:52:25.308Z,3.87
2023-04-23T00:54:53.509Z,3.07
2023-04-23T00:57:22.423Z,3.20
2023-04-23T00:59:51.168Z,3.50
2023-04-23T01:02:19.707Z,2.83
2023-04-23T01:04:51.288Z,3.53
2023-04-23T01:07:20.094Z,3.40
2023-04-23T01:09:51.582Z,3.40
2023-04-23T01:12:19.886Z,3.20
2023-04-23T01:14:49.024Z,3.10
2023-04-23T01:17:17.220Z,2.50
2023-04-23T01:19:45.643Z,2.77
2023-04-23T01:22:15.984Z,3.10
2023-04-23T01:24:44.220Z,3.10
2023-04-23T01:27:13.024Z,2.73
2023-04-23T01:29:41.536Z,2.90
2023-04-23T01:32:10.379Z,3.00
2023-04-23T01:34:40.834Z,2.50
2023-04-23T01:37:10.127Z,3.10
2023-04-23T01:39:39.698Z,2.70
2023-04-23T01:42:08.471Z,2.93
2023-04-23T01:44:36.656Z,3.10
2023-04-23T01:47:06.997Z,2.90
2023-04-23T01:49:35.630Z,2.83
2023-04-23T01:52:04.254Z,3.43
2023-04-23T01:54:32.525Z,2.97
2023-04-23T01:57:03.010Z,2.63
2023-04-23T01:59:31.275Z,3.03
2023-04-23T02:01:59.614Z,2.53
2023-04-23T02:04:28.511Z,3.37
2023-04-23T02:06:56.933Z,3.00
2023-04-23T02:09:25.337Z,2.40
2023-04-23T02:11:53.604Z,2.80
2023-04-23T02:14:23.236Z,2.87
2023-04-23T02:16:51.705Z,2.73
2023-04-23T02:19:19.866Z,2.63
2023-04-23T02:21:48.024Z,2.93
2023-04-23T02:24:16.572Z,2.63
2023-04-23T02:26:45.356Z,2.67
2023-04-23T02:29:13.473Z,2.37
2023-04-23T02:31:44.296Z,2.43
2023-04-23T02:34:12.472Z,2.37
2023-04-23T02:36:40.810Z,2.77
2023-04-23T02:39:09.223Z,2.20
2023-04-23T02:41:37.424Z,2.40
2023-04-23T02:44:06.727Z,2.23
2023-04-23T02:46:36.350Z,2.30
2023-04-23T02:49:06.847Z,2.10
2023-04-23T02:51:34.983Z,1.97
2023-04-23T02:54:04.104Z,1.90
2023-04-23T02:56:32.370Z,2.00
2023-04-23T02:59:01.390Z,1.77
2023-04-23T03:01:29.956Z,1.93
2023-04-23T03:03:58.516Z,1.90
2023-04-23T03:06:28.423Z,2.00
2023-04-23T03:08:57.069Z,1.90
2023-04-23T03:11:25.184Z,1.70
2023-04-23T03:13:53.460Z,1.60
2023-04-23T03:16:21.695Z,1.60
2023-04-23T03:18:49.974Z,1.77
2023-04-23T03:21:18.323Z,1.50
2023-04-23T03:23:47.930Z,1.87
2023-04-23T03:26:16.325Z,1.83
2023-04-23T03:28:44.463Z,2.30
2023-04-23T03:31:12.855Z,1.70
2023-04-23T03:33:41.262Z,1.70
2023-04-23T03:36:09.833Z,1.87
2023-04-23T03:38:39.077Z,2.43
2023-04-23T03:41:08.788Z,2.03
2023-04-23T03:43:37.137Z,2.00
2023-04-23T03:46:05.863Z,1.93
2023-04-23T03:48:39.010Z,1.93
2023-04-23T03:51:12.278Z,1.30
2023-04-23T03:53:50.156Z,1.63
2023-04-23T03:56:34.438Z,1.37
2023-04-23T03:59:22.929Z,1.43
2023-04-23T04:01:54.137Z,1.33
2023-04-23T04:04:22.540Z,1.30
2023-04-23T04:06:52.076Z,1.37
2023-04-23T04:09:20.198Z,1.37
2023-04-23T04:11:50.363Z,1.03
2023-04-23T04:14:19.828Z,1.63
2023-04-23T04:16:48.083Z,1.30
2023-04-23T04:19:16.283Z,1.37
2023-04-23T04:21:44.762Z,1.40
2023-04-23T04:24:12.850Z,1.40
2023-04-23T04:26:42.097Z,1.10
2023-04-23T04:29:11.862Z,1.27
2023-04-23T04:31:40.076Z,1.20
2023-04-23T04:34:10.575Z,1.20
2023-04-23T04:36:38.674Z,1.33
2023-04-23T04:39:07.862Z,1.60
2023-04-23T04:41:37.398Z,1.13
2023-04-23T04:44:05.934Z,1.17
2023-04-23T04:46:40.662Z,1.23
2023-04-23T04:49:09.634Z,1.40
2023-04-23T04:51:38.428Z,1.50
2023-04-23T04:54:07.384Z,1.47
2023-04-23T04:56:35.673Z,1.20
2023-04-23T04:59:04.554Z,1.20
2023-04-23T05:01:34.298Z,1.20
2023-04-23T05:04:04.638Z,1.30
2023-04-23T05:06:33.315Z,1.70
2023-04-23T05:09:01.500Z,1.30
2023-04-23T05:11:29.666Z,1.53
2023-04-23T05:13:58.524Z,1.27
2023-04-23T05:16:26.704Z,1.40
2023-04-23T05:18:55.160Z,1.17
2023-04-23T05:21:24.876Z,1.23
2023-04-23T05:23:52.990Z,1.20
2023-04-23T05:26:21.658Z,1.00
2023-04-23T05:28:49.883Z,0.93
2023-04-23T05:31:18.036Z,1.20
2023-04-23T05:33:50.409Z,1.23
2023-04-23T05:36:19.236Z,1.00
2023-04-23T05:38:48.920Z,1.00
2023-04-23T05:41:17.534Z,0.90
2023-04-23T05:43:45.735Z,1.20
2023-04-23T05:46:13.918Z,1.20
2023-04-23T05:48:42.119Z,1.07
2023-04-23T05:51:10.538Z,0.93
2023-04-23T05:53:38.816Z,0.90
2023-04-23T05:56:08.629Z,1.10
2023-04-23T05:58:38.800Z,0.90
2023-04-23T06:01:07.150Z,0.97
2023-04-23T06:03:37.281Z,1.00
2023-04-23T06:06:05.964Z,1.07
2023-04-23T06:08:34.624Z,0.93
2023-04-23T06:11:03.360Z,0.90
2023-04-23T06:13:32.868Z,1.10
2023-04-23T06:16:01.561Z,0.80
2023-04-23T06:18:29.777Z,0.90
2023-04-23T06:20:59.074Z,1.10
2023-04-23T06:23:27.260Z,0.80
2023-04-23T06:25:55.437Z,1.10
2023-04-23T06:28:23.848Z,0.90
2023-04-23T06:31:13.622Z,1.07
2023-04-23T06:33:41.902Z,1.00
2023-04-23T06:36:11.022Z,1.23
2023-04-23T06:38:39.705Z,1.10
2023-04-23T06:41:08.136Z,0.80
2023-04-23T06:43:36.268Z,0.93
2023-04-23T06:46:30.949Z,0.90
2023-04-23T06:48:59.398Z,0.80
2023-04-23T06:51:27.980Z,1.20
2023-04-23T06:53:56.265Z,0.90
2023-04-23T06:56:24.742Z,1.13
2023-04-23T06:58:53.344Z,1.57
2023-04-23T07:01:23.256Z,1.10
2023-04-23T07:03:54.696Z,1.27
2023-04-23T07:06:22.916Z,1.50
2023-04-23T07:08:51.042Z,1.50
2023-04-23T07:11:19.418Z,1.67
2023-04-23T07:13:47.887Z,1.10
2023-04-23T07:16:16.572Z,1.57
2023-04-23T07:18:44.904Z,1.37
2023-04-23T07:21:14.477Z,1.23
2023-04-23T07:23:42.606Z,1.30
2023-04-23T07:26:10.803Z,1.80
2023-04-23T07:28:38.959Z,1.10
2023-04-23T07:31:08.032Z,1.17
2023-04-23T07:33:36.197Z,0.93
2023-04-23T07:36:04.300Z,0.90
2023-04-23T07:38:34.170Z,1.10
2023-04-23T07:41:02.270Z,1.00
2023-04-23T07:43:30.411Z,1.10
2023-04-23T07:45:58.719Z,1.20
2023-04-23T07:48:26.831Z,1.10
2023-04-23T07:50:55.367Z,1.50
2023-04-23T07:53:23.720Z,1.10
2023-04-23T07:55:53.537Z,1.50
2023-04-23T07:58:21.686Z,1.33
2023-04-23T08:00:49.864Z,1.10
2023-04-23T08:03:18.168Z,1.20
2023-04-23T08:08:14.894Z,1.47
2023-04-23T08:10:43.411Z,1.40
2023-04-23T08:13:12.933Z,1.30
2023-04-23T08:15:41.175Z,1.33
2023-04-23T08:18:09.390Z,1.20
2023-04-23T08:20:37.507Z,1.47
2023-04-23T08:23:05.756Z,2.30
2023-04-23T08:25:34.786Z,1.30
2023-04-23T08:28:03.895Z,1.43
2023-04-23T08:30:33.505Z,1.40
2023-04-23T08:33:01.874Z,1.30
2023-04-23T08:35:30.336Z,1.17
2023-04-23T08:37:58.653Z,1.57
2023-04-23T08:40:30.912Z,1.17
2023-04-23T08:43:02.630Z,1.20
2023-04-23T08:45:31.843Z,1.70
2023-04-23T08:48:03.242Z,1.33
2023-04-23T08:50:32.128Z,1.27
2023-04-23T08:53:00.626Z,0.80
2023-04-23T08:55:29.157Z,1.10
2023-04-23T08:57:59.934Z,1.53
2023-04-23T09:00:28.372Z,1.77
2023-04-23T09:02:57.811Z,1.40
2023-04-23T09:05:28.658Z,1.30
2023-04-23T09:07:57.992Z,1.30
2023-04-23T09:10:26.582Z,1.17
2023-04-23T09:12:54.774Z,1.33
2023-04-23T09:15:23.252Z,1.70
2023-04-23T09:17:51.495Z,1.33
2023-04-23T09:20:19.795Z,1.40
2023-04-23T09:22:52.223Z,1.23
2023-04-23T09:25:22.705Z,1.50
2023-04-23T09:27:53.056Z,1.10
2023-04-23T09:30:21.498Z,1.47
2023-04-23T09:32:49.915Z,1.53
2023-04-23T09:35:20.868Z,1.13
2023-04-23T09:37:53.466Z,1.40
2023-04-23T09:40:24.179Z,1.07
2023-04-23T09:42:54.616Z,1.53
2023-04-23T09:45:25.196Z,0.97
2023-04-23T09:47:54.921Z,1.30
2023-04-23T09:50:33.964Z,1.20
2023-04-23T09:53:04.212Z,1.30
2023-04-23T09:55:35.884Z,1.47
2023-04-23T09:58:05.280Z,1.17
2023-04-23T10:00:37.764Z,1.27
2023-04-23T10:03:08.981Z,1.13
2023-04-23T10:05:59.387Z,1.60
2023-04-23T10:08:33.046Z,1.20
2023-04-23T10:11:14.080Z,1.30
2023-04-23T10:13:48.648Z,2.00
2023-04-23T10:16:23.400Z,1.50
2023-04-23T10:18:55.412Z,1.00
2023-04-23T10:21:32.099Z,1.20
2023-04-23T10:24:05.300Z,1.30
2023-04-23T10:26:34.266Z,1.93
2023-04-23T10:29:04.016Z,1.27
2023-04-23T10:31:35.063Z,1.17
2023-04-23T10:34:06.997Z,1.50
2023-04-23T10:36:35.265Z,1.10
2023-04-23T10:39:09.414Z,1.30
2023-04-23T10:41:40.645Z,1.10
2023-04-23T10:44:15.875Z,1.17
2023-04-23T10:46:53.794Z,1.30
2023-04-23T10:49:24.309Z,1.20
2023-04-23T10:54:36.237Z,1.30
2023-04-23T10:57:06.018Z,1.70
2023-04-23T10:59:36.276Z,1.17
2023-04-23T11:02:09.541Z,1.40
2023-04-23T11:04:43.185Z,1.00
2023-04-23T11:07:12.810Z,0.80
2023-04-23T11:09:44.584Z,1.17
2023-04-23T11:12:14.874Z,1.13
2023-04-23T11:14:47.304Z,1.10
2023-04-23T11:17:17.255Z,0.80
2023-04-23T11:20:10.259Z,1.00
2023-04-23T11:22:40.297Z,0.80
2023-04-23T11:25:13.478Z,1.30
2023-04-23T11:27:44.340Z,1.63
2023-04-23T11:30:14.502Z,0.97
2023-04-23T11:32:43.553Z,0.80
2023-04-23T11:35:14.494Z,0.73
2023-04-23T11:37:44.169Z,0.70
2023-04-23T11:40:19.030Z,0.87
2023-04-23T11:42:49.630Z,0.90
2023-04-23T11:45:18.887Z,0.70
2023-04-23T11:47:47.923Z,1.07
2023-04-23T11:50:20.453Z,1.10
2023-04-23T11:52:49.105Z,0.63
2023-04-23T11:55:19.048Z,0.70
2023-04-23T11:57:48.833Z,0.50
2023-04-23T12:00:18.950Z,0.80
2023-04-23T12:02:58.997Z,0.80
2023-04-23T12:05:31.001Z,0.70
2023-04-23T12:08:09.897Z,0.90
2023-04-23T12:10:47.669Z,0.60
2023-04-23T12:13:16.805Z,1.17
2023-04-23T12:15:50.374Z,1.10
2023-04-23T12:18:19.387Z,0.70
2023-04-23T12:20:48.161Z,1.10
2023-04-23T12:23:16.745Z,1.13
2023-04-23T12:25:46.686Z,1.10
2023-04-23T12:28:14.895Z,0.70
2023-04-23T12:30:46.223Z,1.17
2023-04-23T12:33:14.883Z,0.90
2023-04-23T12:35:44.746Z,0.70
2023-04-23T12:38:24.692Z,0.90
2023-04-23T12:40:54.953Z,1.17
2023-04-23T12:43:23.799Z,0.90
2023-04-23T12:45:52.635Z,1.20
2023-04-23T12:48:20.870Z,0.90
2023-04-23T12:50:51.693Z,1.23
2023-04-23T12:53:20.152Z,1.00
2023-04-23T12:55:50.275Z,1.40
2023-04-23T12:58:22.066Z,1.10
2023-04-23T13:00:50.313Z,1.27
2023-04-23T13:03:20.293Z,1.10
2023-04-23T13:05:49.056Z,1.10
2023-04-23T13:08:17.570Z,0.90
2023-04-23T13:10:46.221Z,1.20
2023-04-23T13:13:14.557Z,1.40
2023-04-23T13:15:51.561Z,1.17
2023-04-23T13:18:20.217Z,1.30
2023-04-23T13:20:48.375Z,1.03
2023-04-23T13:23:16.910Z,1.27
2023-04-23T13:25:45.144Z,1.60
2023-04-23T13:28:13.540Z,1.07
2023-04-23T13:30:41.685Z,1.60
2023-04-23T13:33:11.338Z,1.53
2023-04-23T13:35:40.444Z,1.43
2023-04-23T13:38:08.666Z,1.40
2023-04-23T13:40:37.994Z,1.10
2023-04-23T13:43:06.175Z,0.90
2023-04-23T13:45:34.748Z,1.10
2023-04-23T13:48:03.248Z,1.20
2023-04-23T13:50:33.183Z,0.93
2023-04-23T13:53:01.512Z,0.97
2023-04-23T13:55:29.733Z,1.07
2023-04-23T13:57:58.846Z,1.03
2023-04-23T14:00:29.288Z,1.03
2023-04-23T14:02:57.566Z,1.10
2023-04-23T14:05:25.955Z,1.10
2023-04-23T14:07:55.758Z,0.90
2023-04-23T14:10:24.316Z,1.70
2023-04-23T14:12:53.267Z,1.60
2023-04-23T14:15:21.800Z,0.97
2023-04-23T14:17:49.997Z,1.10
2023-04-23T14:20:19.992Z,1.37
2023-04-23T14:22:51.782Z,1.17
2023-04-23T14:25:31.939Z,1.00
2023-04-23T14:28:04.728Z,0.80
2023-04-23T14:30:33.212Z,1.20
2023-04-23T14:33:01.435Z,1.00
2023-04-23T14:35:41.821Z,0.90
2023-04-23T14:38:11.225Z,1.10
2023-04-23T14:40:40.817Z,1.50
2023-04-23T14:45:42.445Z,1.20
2023-04-23T14:48:10.795Z,1.30
2023-04-23T14:50:38.934Z,1.20
2023-04-23T14:53:07.735Z,1.83
2023-04-23T14:55:36.254Z,1.30
2023-04-23T14:58:06.459Z,1.37
2023-04-23T15:00:35.136Z,1.07
2023-04-23T15:03:08.417Z,1.40
2023-04-23T15:05:36.733Z,1.20
2023-04-23T15:08:05.249Z,1.40
2023-04-23T15:10:33.442Z,1.10
2023-04-23T15:13:10.104Z,1.20
2023-04-23T15:15:45.048Z,1.57
2023-04-23T15:18:16.527Z,1.63
2023-04-23T15:20:46.175Z,1.77
2023-04-23T15:23:14.385Z,2.30
2023-04-23T15:25:42.688Z,1.80
2023-04-23T15:28:12.401Z,1.90
2023-04-23T15:30:40.859Z,1.87
2023-04-23T15:33:09.066Z,1.90
2023-04-23T15:35:37.183Z,1.80
2023-04-23T15:38:05.297Z,1.43
2023-04-23T15:40:41.019Z,1.17
2023-04-23T15:43:09.566Z,1.63
2023-04-23T15:45:39.125Z,1.40
2023-04-23T15:48:07.510Z,1.50
2023-04-23T15:50:36.381Z,1.90
2023-04-23T15:53:05.163Z,1.30
2023-04-23T15:55:34.047Z,1.73
2023-04-23T15:58:03.671Z,1.50
2023-04-23T16:00:33.937Z,1.33
2023-04-23T16:03:05.066Z,1.57
2023-04-23T16:05:33.865Z,1.00
2023-04-23T16:08:02.208Z,0.80
2023-04-23T16:10:33.902Z,0.73
2023-04-23T16:13:03.132Z,0.90
2023-04-23T16:15:31.409Z,0.87
2023-04-23T16:18:00.320Z,0.80
2023-04-23T16:20:31.171Z,0.90
2023-04-23T16:22:59.376Z,1.00
2023-04-23T16:25:27.795Z,1.07
2023-04-23T16:27:56.718Z,0.87
2023-04-23T16:30:24.942Z,1.00
2023-04-23T16:32:53.698Z,0.70
2023-04-23T16:35:22.063Z,0.90
2023-04-23T16:37:52.569Z,1.23
2023-04-23T16:40:21.546Z,1.00
2023-04-23T16:42:49.713Z,0.80
2023-04-23T16:45:22.902Z,1.20
2023-04-23T16:47:51.850Z,0.80
2023-04-23T16:50:20.301Z,0.90
2023-04-23T16:52:48.654Z,0.90
2023-04-23T16:55:18.457Z,1.10
2023-04-23T16:57:46.858Z,1.10
2023-04-23T17:00:16.621Z,1.30
2023-04-23T17:02:44.948Z,1.17
2023-04-23T17:05:13.821Z,1.50
2023-04-23T17:07:43.906Z,1.50
2023-04-23T17:10:12.527Z,0.90
2023-04-23T17:12:42.082Z,1.00
2023-04-23T17:15:11.467Z,0.87
2023-04-23T17:17:40.013Z,1.10
2023-04-23T17:20:10.317Z,0.93
2023-04-23T17:22:38.791Z,0.97
2023-04-23T17:25:08.013Z,1.10
2023-04-23T17:27:36.264Z,1.07
2023-04-23T17:30:06.973Z,1.00
2023-04-23T17:32:35.333Z,1.47
2023-04-23T17:35:10.307Z,1.40
2023-04-23T17:37:39.311Z,1.30
2023-04-23T17:40:09.762Z,1.40
2023-04-23T17:42:37.901Z,1.57
2023-04-23T17:45:08.837Z,1.90
2023-04-23T17:47:37.699Z,1.50
2023-04-23T17:50:09.482Z,1.60
2023-04-23T17:52:37.630Z,0.90
2023-04-23T17:55:06.485Z,0.90
2023-04-23T17:57:34.675Z,0.97
2023-04-23T18:00:09.803Z,0.90
2023-04-23T18:02:42.941Z,0.90
2023-04-23T18:05:12.707Z,1.23
2023-04-23T18:07:41.979Z,1.10
2023-04-23T18:10:12.175Z,0.87
2023-04-23T18:12:40.719Z,0.77
2023-04-23T18:15:12.397Z,1.03
2023-04-23T18:17:42.326Z,1.00
2023-04-23T18:20:11.114Z,0.90
2023-04-23T18:22:41.283Z,0.80
2023-04-23T18:25:11.469Z,0.83
2023-04-23T18:27:39.905Z,1.63
2023-04-23T18:30:09.652Z,0.90
2023-04-23T18:32:42.734Z,1.00
2023-04-23T18:35:13.106Z,0.83
2023-04-23T18:37:48.135Z,1.17
2023-04-23T18:40:16.529Z,1.30
2023-04-23T18:42:44.750Z,1.40
2023-04-23T18:45:13.643Z,1.13
2023-04-23T18:47:51.174Z,1.20
2023-04-23T18:50:38.912Z,1.40
2023-04-23T18:53:07.246Z,1.30
2023-04-23T18:55:35.517Z,1.20
2023-04-23T18:58:03.713Z,1.00
2023-04-23T19:00:32.094Z,1.30
2023-04-23T19:03:02.786Z,0.93
2023-04-23T19:05:36.274Z,0.90
2023-04-23T19:08:04.689Z,0.97
2023-04-23T19:10:32.852Z,1.53
2023-04-23T19:13:01.283Z,1.50
2023-04-23T19:15:29.601Z,1.20
2023-04-23T19:17:57.847Z,1.80
2023-04-23T19:20:26.254Z,1.70
2023-04-23T19:22:55.951Z,1.43
2023-04-23T19:25:24.464Z,1.00
2023-04-23T19:27:52.670Z,0.97
2023-04-23T19:30:20.871Z,0.83
2023-04-23T19:32:49.065Z,0.97
2023-04-23T19:35:17.750Z,0.97
2023-04-23T19:37:47.218Z,1.20
2023-04-23T19:40:16.806Z,1.03
2023-04-23T19:42:45.005Z,0.90
2023-04-23T19:45:15.517Z,0.60
2023-04-23T19:47:43.803Z,1.00
2023-04-23T19:50:13.939Z,0.80
2023-04-23T19:52:42.327Z,0.60
2023-04-23T19:55:10.980Z,1.00
2023-04-23T19:57:40.550Z,1.30
2023-04-23T20:00:13.523Z,0.93
2023-04-23T20:02:41.964Z,0.90
2023-04-23T20:05:11.532Z,0.77
2023-04-23T20:07:40.406Z,0.90
2023-04-23T20:10:09.478Z,0.77
2023-04-23T20:12:37.702Z,0.90
2023-04-23T20:15:09.516Z,1.07
2023-04-23T20:17:38.431Z,0.80
2023-04-23T20:20:07.653Z,0.93
2023-04-23T20:22:35.807Z,0.90
2023-04-23T20:25:05.227Z,0.93
2023-04-23T20:27:33.882Z,1.30
2023-04-23T20:30:02.025Z,0.80
2023-04-23T20:32:31.761Z,0.90
2023-04-23T20:35:00.364Z,0.60
2023-04-23T20:37:28.524Z,0.70
2023-04-23T20:39:58.585Z,0.80
2023-04-23T20:42:29.051Z,1.03
2023-04-23T20:44:57.793Z,1.17
2023-04-23T20:47:26.063Z,0.80
2023-04-23T20:49:55.748Z,0.60
2023-04-23T20:52:24.062Z,1.13
2023-04-23T20:54:52.349Z,1.20
2023-04-23T20:57:21.215Z,0.90
2023-04-23T20:59:49.761Z,1.00
2023-04-23T21:02:18.029Z,1.17
2023-04-23T21:04:46.606Z,0.80
2023-04-23T21:07:16.241Z,1.03
2023-04-23T21:09:44.678Z,1.00
2023-04-23T21:12:13.347Z,1.17
2023-04-23T21:14:41.610Z,1.00
2023-04-23T21:17:10.582Z,1.00
2023-04-23T21:19:38.858Z,1.20
2023-04-23T21:22:07.327Z,1.10
2023-04-23T21:24:37.036Z,0.90
2023-04-23T21:27:05.490Z,0.90
2023-04-23T21:29:34.116Z,0.90
2023-04-23T21:32:02.345Z,1.30
2023-04-23T21:34:30.616Z,1.00
2023-04-23T21:36:58.885Z,1.00
2023-04-23T21:39:27.042Z,1.13
2023-04-23T21:41:56.694Z,1.10
2023-04-23T21:44:25.116Z,0.70
2023-04-23T21:46:53.804Z,0.93
2023-04-23T21:49:22.386Z,0.80
2023-04-23T21:51:54.531Z,0.80
2023-04-23T21:54:22.777Z,0.90
2023-04-23T21:56:51.027Z,1.20
2023-04-23T21:59:20.869Z,1.03
2023-04-23T22:01:49.089Z,0.90
2023-04-23T22:04:17.863Z,0.90
2023-04-23T22:06:47.106Z,1.00
2023-04-23T22:09:16.148Z,0.97
2023-04-23T22:12:00.676Z,1.00
2023-04-23T22:14:31.245Z,1.10
2023-04-23T22:16:59.917Z,1.07
2023-04-23T22:19:28.271Z,0.80
2023-04-23T22:21:56.838Z,1.20
2023-04-23T22:24:25.363Z,0.80
2023-04-23T22:26:53.563Z,0.80
2023-04-23T22:29:21.768Z,1.10
2023-04-23T22:31:51.326Z,1.00
2023-04-23T22:34:19.810Z,1.20
2023-04-23T22:36:47.968Z,0.90
2023-04-23T22:39:16.158Z,0.90
2023-04-23T22:41:44.393Z,0.70
2023-04-23T22:44:12.884Z,0.90
2023-04-23T22:46:41.663Z,1.10
2023-04-23T22:49:14.148Z,1.20
2023-04-23T22:51:42.249Z,0.90
2023-04-23T22:54:10.545Z,0.80
2023-04-23T22:56:38.775Z,0.90
2023-04-23T22:59:07.013Z,1.17
2023-04-23T23:01:35.532Z,0.70
2023-04-23T23:04:03.944Z,0.90
2023-04-23T23:06:33.922Z,0.60
2023-04-23T23:09:02.097Z,1.00
2023-04-23T23:11:30.396Z,0.80
2023-04-23T23:13:58.964Z,0.80
2023-04-23T23:16:27.176Z,0.87
2023-04-23T23:18:55.546Z,1.00
2023-04-23T23:21:24.093Z,0.90
2023-04-23T23:23:53.892Z,0.60
2023-04-23T23:26:22.365Z,0.90
2023-04-23T23:28:50.676Z,0.77
2023-04-23T23:31:19.516Z,1.07
2023-04-23T23:33:47.821Z,1.00
2023-04-23T23:36:16.026Z,0.80
2023-04-23T23:38:44.548Z,1.17
2023-04-23T23:41:14.061Z,0.80
2023-04-23T23:43:42.256Z,0.90
2023-04-23T23:46:10.605Z,1.00
2023-04-23T23:48:38.978Z,1.07
2023-04-23T23:51:07.361Z,0.90
2023-04-23T23:53:35.835Z,0.83
2023-04-23T23:56:04.211Z,0.97
2023-04-23T23:58:33.966Z,1.00
